createdAt,value
2023-01-09T00:02:31.247Z,73.59
2023-01-09T00:05:20.959Z,73.57
2023-01-09T00:07:55.146Z,73.68
2023-01-09T00:10:26.378Z,73.30
2023-01-09T00:12:57.672Z,73.27
2023-01-09T00:15:31.009Z,73.25
2023-01-09T00:18:03.272Z,72.73
2023-01-09T00:20:36.917Z,72.42
2023-01-09T00:23:21.059Z,72.14
2023-01-09T00:26:26.066Z,72.48
2023-01-09T00:29:27.710Z,72.37
2023-01-09T00:32:15.585Z,72.97
2023-01-09T00:35:09.522Z,72.87
2023-01-09T00:41:18.124Z,72.23
2023-01-09T00:43:54.280Z,71.82
2023-01-09T00:46:48.095Z,71.70
2023-01-09T00:49:38.071Z,71.73
2023-01-09T00:52:39.102Z,72.09
2023-01-09T00:55:23.468Z,72.03
2023-01-09T00:58:20.357Z,71.94
2023-01-09T01:00:48.745Z,71.96
2023-01-09T01:03:51.980Z,72.21
2023-01-09T01:06:57.318Z,72.11
2023-01-09T01:09:30.664Z,71.71
2023-01-09T01:12:02.420Z,71.71
2023-01-09T01:14:30.228Z,72.54
2023-01-09T01:17:06.974Z,72.39
2023-01-09T01:19:40.212Z,72.49
2023-01-09T01:22:11.066Z,71.98
2023-01-09T01:24:41.697Z,71.85
2023-01-09T01:27:14.348Z,71.41
2023-01-09T01:29:44.466Z,71.24
2023-01-09T01:32:14.412Z,70.86
2023-01-09T01:34:46.356Z,71.57
2023-01-09T01:37:17.424Z,71.22
2023-01-09T01:39:49.928Z,71.66
2023-01-09T01:42:20.602Z,71.43
2023-01-09T01:45:08.472Z,71.55
2023-01-09T01:47:49.233Z,71.92
2023-01-09T01:50:20.078Z,72.11
2023-01-09T01:52:51.783Z,72.34
2023-01-09T01:55:22.337Z,72.39
2023-01-09T01:57:51.072Z,72.40
2023-01-09T02:00:28.454Z,71.94
2023-01-09T02:02:55.725Z,72.09
2023-01-09T02:05:28.482Z,72.22
2023-01-09T02:08:04.934Z,72.49
2023-01-09T02:10:32.688Z,72.47
2023-01-09T02:15:46.774Z,72.00
2023-01-09T02:18:16.336Z,72.16
2023-01-09T02:20:57.705Z,72.31
2023-01-09T02:23:47.111Z,72.05
2023-01-09T02:26:35.117Z,72.36
2023-01-09T02:29:04.964Z,71.93
2023-01-09T02:31:38.843Z,72.39
2023-01-09T02:34:24.806Z,72.24
2023-01-09T02:37:13.803Z,72.40
2023-01-09T02:39:44.197Z,72.08
2023-01-09T02:42:16.538Z,71.95
2023-01-09T02:44:49.742Z,71.83
2023-01-09T02:47:19.625Z,71.64
2023-01-09T02:49:53.039Z,71.19
2023-01-09T02:52:50.033Z,71.14
2023-01-09T02:55:45.181Z,70.88
2023-01-09T03:01:05.574Z,71.19
2023-01-09T03:04:09.127Z,71.29
2023-01-09T03:06:45.372Z,71.43
2023-01-09T03:09:15.312Z,71.08
2023-01-09T03:11:47.145Z,70.05
2023-01-09T03:14:32.569Z,69.87
2023-01-09T03:17:03.513Z,69.34
2023-01-09T03:19:44.188Z,68.72
2023-01-09T03:22:19.023Z,68.75
2023-01-09T03:24:48.700Z,67.71
2023-01-09T03:27:33.259Z,67.33
2023-01-09T03:30:01.351Z,67.21
2023-01-09T03:32:29.031Z,67.47
2023-01-09T03:35:07.724Z,67.12
2023-01-09T03:37:41.744Z,66.45
2023-01-09T03:40:14.346Z,66.29
2023-01-09T03:42:54.355Z,64.68
2023-01-09T03:45:21.746Z,65.11
2023-01-09T03:47:48.946Z,65.52
2023-01-09T03:50:18.923Z,65.85
2023-01-09T03:52:50.274Z,66.22
2023-01-09T03:55:21.278Z,66.46
2023-01-09T03:57:56.418Z,66.99
2023-01-09T04:00:28.978Z,66.44
2023-01-09T04:03:04.103Z,65.14
2023-01-09T04:05:36.051Z,65.13
2023-01-09T04:11:00.769Z,63.71
2023-01-09T04:13:37.232Z,63.23
2023-01-09T04:16:35.956Z,63.13
2023-01-09T04:19:06.629Z,62.75
2023-01-09T04:21:39.584Z,62.74
2023-01-09T04:24:11.974Z,62.66
2023-01-09T04:27:03.772Z,62.72
2023-01-09T04:29:40.021Z,61.10
2023-01-09T04:34:53.628Z,61.01
2023-01-09T04:37:21.111Z,61.35
2023-01-09T04:39:57.371Z,61.09
2023-01-09T04:42:34.168Z,61.04
2023-01-09T04:45:01.670Z,61.35
2023-01-09T04:47:31.286Z,61.38
2023-01-09T04:50:01.891Z,60.99
2023-01-09T04:52:29.168Z,60.75
2023-01-09T04:54:58.755Z,60.96
2023-01-09T04:57:34.639Z,60.64
2023-01-09T05:00:05.276Z,59.96
2023-01-09T05:02:38.263Z,59.25
2023-01-09T05:05:06.509Z,59.51
2023-01-09T05:07:45.534Z,58.81
2023-01-09T05:10:29.669Z,58.26
2023-01-09T05:12:57.911Z,58.46
2023-01-09T05:15:28.500Z,58.60
2023-01-09T05:18:13.366Z,58.25
2023-01-09T05:20:43.716Z,58.78
2023-01-09T05:23:13.907Z,58.92
2023-01-09T05:25:44.929Z,58.30
2023-01-09T05:28:20.664Z,57.73
2023-01-09T05:30:50.459Z,57.12
2023-01-09T05:33:20.202Z,57.29
2023-01-09T05:35:49.097Z,56.91
2023-01-09T05:38:21.172Z,57.24
2023-01-09T05:40:48.372Z,56.93
2023-01-09T05:43:20.160Z,57.81
2023-01-09T05:48:49.550Z,58.51
2023-01-09T05:54:08.299Z,58.69
2023-01-09T05:56:35.304Z,57.03
2023-01-09T06:02:01.426Z,56.76
2023-01-09T06:04:37.674Z,56.50
2023-01-09T06:07:07.567Z,56.14
2023-01-09T06:10:06.542Z,55.63
2023-01-09T06:12:38.449Z,55.14
2023-01-09T06:15:10.205Z,55.49
2023-01-09T06:17:37.251Z,55.06
2023-01-09T06:20:12.259Z,55.28
2023-01-09T06:22:42.000Z,55.58
2023-01-09T06:25:12.248Z,55.90
2023-01-09T06:27:39.340Z,56.07
2023-01-09T06:30:06.741Z,56.26
2023-01-09T06:32:36.652Z,56.25
2023-01-09T06:35:26.759Z,56.48
2023-01-09T06:37:59.835Z,56.57
2023-01-09T06:40:31.576Z,56.57
2023-01-09T06:42:58.531Z,57.20
2023-01-09T06:45:50.763Z,57.48
2023-01-09T06:48:35.974Z,57.84
2023-01-09T06:51:30.117Z,57.79
2023-01-09T06:53:59.190Z,58.49
2023-01-09T06:56:26.591Z,58.73
2023-01-09T06:58:59.910Z,58.46
2023-01-09T07:01:30.112Z,58.85
2023-01-09T07:03:57.572Z,59.11
2023-01-09T07:06:27.815Z,60.07
2023-01-09T07:09:19.529Z,60.01
2023-01-09T07:11:50.604Z,60.33
2023-01-09T07:14:26.698Z,60.36
2023-01-09T07:16:56.991Z,60.63
2023-01-09T07:19:27.670Z,60.55
2023-01-09T07:22:01.532Z,60.38
2023-01-09T07:24:38.131Z,60.42
2023-01-09T07:27:08.152Z,60.17
2023-01-09T07:29:45.263Z,60.51
2023-01-09T07:32:15.427Z,60.10
2023-01-09T07:34:52.844Z,60.72
2023-01-09T07:37:33.036Z,60.53
2023-01-09T07:40:08.111Z,60.96
2023-01-09T07:43:06.777Z,60.53
2023-01-09T07:45:54.871Z,60.81
2023-01-09T07:48:29.883Z,61.35
2023-01-09T07:51:03.888Z,61.11
2023-01-09T07:53:54.838Z,61.40
2023-01-09T07:56:24.613Z,62.23
2023-01-09T07:59:36.860Z,61.93
2023-01-09T08:02:09.908Z,62.15
2023-01-09T08:04:46.763Z,61.82
2023-01-09T08:08:09.761Z,61.60
2023-01-09T08:10:42.245Z,62.05
2023-01-09T08:13:18.682Z,61.89
2023-01-09T08:15:55.136Z,61.40
2023-01-09T08:18:27.047Z,61.37
2023-01-09T08:20:54.395Z,61.20
2023-01-09T08:23:24.249Z,61.21
2023-01-09T08:25:52.544Z,61.00
2023-01-09T08:28:27.936Z,61.09
2023-01-09T08:30:55.054Z,60.44
2023-01-09T08:33:25.052Z,60.23
2023-01-09T08:35:54.321Z,60.27
2023-01-09T08:38:33.117Z,59.74
2023-01-09T08:41:22.729Z,59.41
2023-01-09T08:44:18.658Z,59.42
2023-01-09T08:47:04.817Z,59.47
2023-01-09T08:49:46.332Z,58.86
2023-01-09T08:52:22.758Z,58.38
2023-01-09T08:54:56.065Z,58.73
2023-01-09T08:57:52.582Z,58.71
2023-01-09T09:00:32.400Z,59.29
2023-01-09T09:03:26.233Z,60.00
2023-01-09T09:06:14.017Z,59.11
2023-01-09T09:11:48.028Z,57.61
2023-01-09T09:20:21.782Z,56.88
2023-01-09T09:22:55.389Z,56.76
2023-01-09T09:25:34.348Z,56.52
2023-01-09T09:31:11.701Z,55.60
2023-01-09T09:33:51.405Z,55.40
2023-01-09T09:36:41.076Z,55.19
2023-01-09T09:39:09.651Z,54.80
2023-01-09T09:42:13.691Z,55.01
2023-01-09T09:48:22.741Z,54.77
2023-01-09T09:51:01.667Z,54.95
2023-01-09T09:53:47.207Z,54.43
2023-01-09T09:56:40.740Z,54.51
2023-01-09T09:59:16.680Z,55.03
2023-01-09T10:01:47.878Z,54.73
2023-01-09T10:04:17.739Z,55.01
2023-01-09T10:06:46.165Z,55.07
2023-01-09T10:09:32.265Z,55.09
2023-01-09T10:12:30.524Z,54.66
2023-01-09T10:14:59.092Z,54.76
2023-01-09T10:17:53.207Z,55.22
2023-01-09T10:20:58.329Z,54.85
2023-01-09T10:23:48.006Z,55.18
2023-01-09T10:26:37.224Z,54.05
2023-01-09T10:29:07.562Z,54.48
2023-01-09T10:31:41.630Z,54.33
2023-01-09T10:34:30.503Z,54.31
2023-01-09T10:37:02.950Z,54.50
2023-01-09T10:40:24.970Z,55.02
2023-01-09T10:43:31.941Z,55.03
2023-01-09T10:46:03.615Z,56.19
2023-01-09T10:49:04.648Z,56.81
2023-01-09T10:51:54.774Z,57.69
2023-01-09T10:54:28.465Z,58.36
2023-01-09T10:57:05.060Z,57.70
2023-01-09T10:59:34.841Z,58.68
2023-01-09T11:02:07.669Z,58.60
2023-01-09T11:04:51.446Z,57.95
2023-01-09T11:07:45.700Z,57.50
2023-01-09T11:10:15.997Z,56.24
2023-01-09T11:12:48.763Z,56.41
2023-01-09T11:15:36.179Z,56.85
2023-01-09T11:19:13.634Z,57.03
2023-01-09T11:21:50.639Z,56.79
2023-01-09T11:24:18.002Z,58.26
2023-01-09T11:26:56.739Z,59.19
2023-01-09T11:29:47.031Z,59.05
2023-01-09T11:32:32.470Z,59.61
2023-01-09T11:35:08.290Z,60.51
2023-01-09T11:37:38.770Z,61.36
2023-01-09T11:40:06.496Z,60.21
2023-01-09T11:42:52.854Z,60.12
2023-01-09T11:45:30.364Z,60.90
2023-01-09T11:47:58.381Z,59.72
2023-01-09T11:50:43.192Z,59.52
2023-01-09T11:53:18.937Z,58.70
2023-01-09T11:55:56.865Z,58.82
2023-01-09T11:58:26.687Z,58.85
2023-01-09T12:01:30.251Z,58.47
2023-01-09T12:04:02.482Z,58.47
2023-01-09T12:06:37.146Z,58.68
2023-01-09T12:09:07.926Z,58.76
2023-01-09T12:11:46.859Z,58.50
2023-01-09T12:15:02.199Z,58.28
2023-01-09T12:17:48.862Z,58.84
2023-01-09T12:20:20.764Z,59.31
2023-01-09T12:22:51.746Z,59.61
2023-01-09T12:25:32.783Z,59.87
2023-01-09T12:28:19.070Z,60.38
2023-01-09T12:33:49.455Z,60.06
2023-01-09T12:36:47.438Z,60.01
2023-01-09T12:39:35.530Z,60.70
2023-01-09T12:42:21.307Z,60.25
2023-01-09T12:45:11.049Z,58.88
2023-01-09T12:47:58.637Z,59.12
2023-01-09T12:50:44.113Z,59.74
2023-01-09T12:53:25.778Z,61.12
2023-01-09T12:56:17.460Z,61.42
2023-01-09T12:59:21.271Z,61.06
2023-01-09T13:02:17.921Z,61.09
2023-01-09T13:05:27.924Z,60.69
2023-01-09T13:08:10.044Z,61.45
2023-01-09T13:10:49.896Z,60.19
2023-01-09T13:16:51.723Z,56.39
2023-01-09T13:19:40.351Z,55.66
2023-01-09T13:22:15.790Z,54.51
2023-01-09T13:25:06.275Z,53.18
2023-01-09T13:27:40.405Z,52.10
2023-01-09T13:30:38.289Z,51.33
2023-01-09T13:33:19.643Z,51.51
2023-01-09T13:35:50.263Z,51.14
2023-01-09T13:38:29.039Z,50.75
2023-01-09T13:41:34.226Z,50.54
2023-01-09T13:44:29.381Z,49.86
2023-01-09T13:46:58.297Z,50.37
2023-01-09T13:49:34.336Z,50.68
2023-01-09T13:52:13.753Z,51.50
2023-01-09T13:54:49.932Z,51.61
2023-01-09T13:57:36.669Z,52.47
2023-01-09T14:00:17.911Z,51.62
2023-01-09T14:03:04.927Z,51.57
2023-01-09T14:05:34.128Z,50.69
2023-01-09T14:08:07.509Z,51.73
2023-01-09T14:10:46.881Z,51.38
2023-01-09T14:13:56.133Z,51.71
2023-01-09T14:16:34.782Z,52.14
2023-01-09T14:19:36.986Z,52.03
2023-01-09T14:22:08.591Z,52.05
2023-01-09T14:24:39.967Z,52.68
2023-01-09T14:27:27.628Z,52.32
2023-01-09T14:30:15.822Z,52.35
2023-01-09T14:33:10.957Z,52.76
2023-01-09T14:35:58.154Z,53.06
2023-01-09T14:38:31.498Z,53.18
2023-01-09T14:41:14.734Z,53.12
2023-01-09T14:43:46.343Z,53.75
2023-01-09T14:46:25.955Z,53.51
2023-01-09T14:48:59.508Z,52.94
2023-01-09T14:51:35.212Z,52.92
2023-01-09T14:54:07.180Z,52.24
2023-01-09T14:56:43.373Z,52.68
2023-01-09T14:59:12.750Z,52.97
2023-01-09T15:01:48.703Z,53.63
2023-01-09T15:04:31.062Z,53.52
2023-01-09T15:07:12.977Z,53.72
2023-01-09T15:12:50.876Z,54.18
2023-01-09T15:15:35.472Z,54.09
2023-01-09T15:18:06.195Z,54.79
2023-01-09T15:20:43.834Z,54.30
2023-01-09T15:23:23.169Z,54.52
2023-01-09T15:25:50.829Z,54.44
2023-01-09T15:28:31.055Z,55.00
2023-01-09T15:31:17.022Z,54.73
2023-01-09T15:34:07.089Z,55.06
2023-01-09T15:36:42.381Z,55.46
2023-01-09T15:39:27.364Z,55.15
2023-01-09T15:45:05.982Z,54.72
2023-01-09T15:47:36.851Z,54.65
2023-01-09T15:50:50.289Z,54.83
2023-01-09T15:53:38.432Z,54.41
2023-01-09T15:56:25.468Z,54.69
2023-01-09T15:59:06.955Z,54.91
2023-01-09T16:01:37.487Z,55.78
2023-01-09T16:04:06.397Z,55.51
2023-01-09T16:06:45.786Z,55.60
2023-01-09T16:09:17.727Z,55.77
2023-01-09T16:11:55.881Z,56.48
2023-01-09T16:14:35.373Z,57.64
2023-01-09T16:17:08.815Z,57.93
2023-01-09T16:19:49.332Z,58.03
2023-01-09T16:22:26.952Z,58.20
2023-01-09T16:25:02.881Z,57.98
2023-01-09T16:27:45.694Z,58.08
2023-01-09T16:33:28.381Z,58.34
2023-01-09T16:36:06.321Z,58.80
2023-01-09T16:38:49.226Z,58.86
2023-01-09T16:41:41.363Z,58.70
2023-01-09T16:44:30.426Z,58.93
2023-01-09T16:47:07.226Z,58.97
2023-01-09T16:49:43.245Z,59.11
2023-01-09T16:52:21.473Z,58.83
2023-01-09T16:55:05.324Z,59.14
2023-01-09T16:57:35.982Z,58.36
2023-01-09T17:00:13.865Z,58.63
2023-01-09T17:03:08.660Z,58.79
2023-01-09T17:05:44.583Z,59.37
2023-01-09T17:08:25.208Z,58.82
2023-01-09T17:10:54.430Z,58.67
2023-01-09T17:13:23.210Z,58.44
2023-01-09T17:15:50.345Z,58.35
2023-01-09T17:18:23.175Z,57.95
2023-01-09T17:20:51.259Z,58.53
2023-01-09T17:23:18.100Z,59.19
2023-01-09T17:26:03.292Z,60.44
2023-01-09T17:28:32.712Z,60.67
2023-01-09T17:31:04.185Z,60.27
2023-01-09T17:33:30.929Z,60.46
2023-01-09T17:35:57.646Z,60.76
2023-01-09T17:38:24.238Z,60.40
2023-01-09T17:40:50.933Z,60.43
2023-01-09T17:43:19.090Z,60.64
2023-01-09T17:45:45.866Z,61.04
2023-01-09T17:48:20.209Z,60.71
2023-01-09T17:50:47.881Z,62.34
2023-01-09T17:53:14.795Z,62.36
2023-01-09T17:55:41.931Z,63.25
2023-01-09T17:58:19.107Z,62.45
2023-01-09T18:00:47.918Z,60.80
2023-01-09T18:03:14.897Z,60.15
2023-01-09T18:05:41.537Z,59.76
2023-01-09T18:08:09.939Z,58.92
2023-01-09T18:10:37.611Z,58.84
2023-01-09T18:13:04.477Z,59.05
2023-01-09T18:15:31.473Z,59.18
2023-01-09T18:17:58.581Z,58.95
2023-01-09T18:20:26.112Z,58.95
2023-01-09T18:22:52.853Z,59.09
2023-01-09T18:25:19.550Z,58.31
2023-01-09T18:27:46.586Z,58.25
2023-01-09T18:30:13.366Z,58.31
2023-01-09T18:32:40.277Z,58.46
2023-01-09T18:35:08.781Z,58.25
2023-01-09T18:37:35.997Z,58.54
2023-01-09T18:40:02.654Z,58.19
2023-01-09T18:42:29.496Z,58.60
2023-01-09T18:44:56.363Z,58.56
2023-01-09T18:47:22.923Z,58.58
2023-01-09T18:49:49.565Z,58.33
2023-01-09T18:52:16.204Z,58.71
2023-01-09T18:54:43.369Z,58.11
2023-01-09T18:57:10.621Z,58.45
2023-01-09T18:59:37.395Z,58.94
2023-01-09T19:02:03.980Z,58.96
2023-01-09T19:04:34.156Z,59.03
2023-01-09T19:07:00.870Z,58.69
2023-01-09T19:09:27.749Z,57.92
2023-01-09T19:11:54.335Z,57.52
2023-01-09T19:14:20.876Z,57.22
2023-01-09T19:16:47.736Z,57.53
2023-01-09T19:19:14.304Z,57.73
2023-01-09T19:21:40.972Z,57.74
2023-01-09T19:24:07.678Z,57.75
2023-01-09T19:26:34.251Z,57.94
2023-01-09T19:29:00.937Z,57.50
2023-01-09T19:31:28.981Z,57.93
2023-01-09T19:33:56.580Z,58.00
2023-01-09T19:36:24.310Z,57.32
2023-01-09T19:38:55.393Z,57.55
2023-01-09T19:41:22.160Z,57.72
2023-01-09T19:43:48.875Z,57.93
2023-01-09T19:46:17.293Z,57.92
2023-01-09T19:48:44.778Z,57.93
2023-01-09T19:51:12.426Z,57.72
2023-01-09T19:53:39.220Z,57.41
2023-01-09T19:56:16.605Z,57.75
2023-01-09T19:58:47.531Z,56.99
2023-01-09T20:01:15.153Z,57.45
2023-01-09T20:03:45.396Z,57.42
2023-01-09T20:06:14.433Z,57.75
2023-01-09T20:08:41.851Z,57.46
2023-01-09T20:11:08.872Z,56.76
2023-01-09T20:13:35.737Z,56.60
2023-01-09T20:16:03.097Z,56.90
2023-01-09T20:18:33.242Z,56.62
2023-01-09T20:21:00.041Z,56.70
2023-01-09T20:23:32.346Z,56.54
2023-01-09T20:26:00.005Z,56.91
2023-01-09T20:28:27.384Z,56.91
2023-01-09T20:30:54.287Z,56.83
2023-01-09T20:33:21.136Z,56.65
2023-01-09T20:35:49.990Z,56.60
2023-01-09T20:38:17.149Z,57.37
2023-01-09T20:40:44.081Z,56.96
2023-01-09T20:43:12.583Z,57.72
2023-01-09T20:45:39.956Z,57.65
2023-01-09T20:48:14.005Z,57.50
2023-01-09T20:50:40.799Z,57.97
2023-01-09T20:53:08.007Z,57.81
2023-01-09T20:55:34.571Z,57.97
2023-01-09T20:58:01.311Z,57.89
2023-01-09T21:00:31.909Z,57.85
2023-01-09T21:02:59.275Z,57.96
2023-01-09T21:05:26.022Z,58.16
2023-01-09T21:07:52.500Z,58.03
2023-01-09T21:10:19.283Z,57.79
2023-01-09T21:12:45.886Z,57.86
2023-01-09T21:15:16.507Z,57.65
2023-01-09T21:17:43.621Z,57.33
2023-01-09T21:20:11.933Z,57.86
2023-01-09T21:22:39.277Z,57.75
2023-01-09T21:25:06.503Z,58.26
2023-01-09T21:27:38.209Z,58.26
2023-01-09T21:30:05.567Z,58.45
2023-01-09T21:32:34.976Z,58.34
2023-01-09T21:35:05.838Z,58.30
2023-01-09T21:37:34.865Z,59.03
2023-01-09T21:40:01.693Z,58.40
2023-01-09T21:42:46.922Z,58.80
2023-01-09T21:45:33.204Z,59.23
2023-01-09T21:48:02.407Z,59.15
2023-01-09T21:50:29.165Z,59.19
2023-01-09T21:52:55.837Z,59.37
2023-01-09T21:55:22.363Z,58.98
2023-01-09T21:57:49.008Z,59.22
2023-01-09T22:00:16.065Z,59.42
2023-01-09T22:02:42.749Z,59.95
2023-01-09T22:05:09.548Z,58.87
2023-01-09T22:07:36.126Z,59.05
2023-01-09T22:10:03.235Z,58.99
2023-01-09T22:12:29.976Z,59.35
2023-01-09T22:14:59.322Z,59.02
2023-01-09T22:17:25.946Z,58.81
2023-01-09T22:19:52.567Z,58.95
2023-01-09T22:22:19.148Z,58.81
2023-01-09T22:24:45.676Z,59.28
2023-01-09T22:27:12.164Z,58.96
2023-01-09T22:29:38.742Z,59.03
2023-01-09T22:32:05.390Z,59.21
2023-01-09T22:34:32.113Z,59.14
2023-01-09T22:36:58.640Z,59.31
2023-01-09T22:39:25.590Z,59.16
2023-01-09T22:41:54.485Z,58.98
2023-01-09T22:44:20.995Z,59.30
2023-01-09T22:46:47.700Z,59.05
2023-01-09T22:49:14.356Z,59.10
2023-01-09T22:51:41.015Z,59.48
2023-01-09T22:54:07.484Z,59.74
2023-01-09T22:56:34.046Z,59.88
2023-01-09T22:59:01.073Z,59.67
2023-01-09T23:01:27.681Z,60.24
2023-01-09T23:03:54.413Z,59.84
2023-01-09T23:06:21.802Z,59.78
2023-01-09T23:08:51.872Z,60.28
2023-01-09T23:11:39.722Z,60.43
2023-01-09T23:14:06.384Z,60.12
2023-01-09T23:16:32.953Z,59.90
2023-01-09T23:18:59.513Z,59.57
2023-01-09T23:21:26.164Z,59.67
2023-01-09T23:23:52.673Z,59.38
2023-01-09T23:26:19.080Z,60.24
2023-01-09T23:28:45.524Z,59.66
2023-01-09T23:31:11.995Z,59.78
2023-01-09T23:33:38.695Z,59.81
2023-01-09T23:36:05.264Z,59.52
2023-01-09T23:38:31.830Z,59.20
2023-01-09T23:40:58.435Z,59.55
2023-01-09T23:43:25.035Z,59.63
2023-01-09T23:45:52.042Z,59.59
2023-01-09T23:48:19.164Z,59.72
2023-01-09T23:50:50.288Z,59.47
2023-01-09T23:53:17.847Z,59.58
2023-01-09T23:55:44.677Z,59.65
2023-01-09T23:58:11.541Z,59.44
